sensor_id;sensor_type;location;lat;lon;timestamp;P1;durP1;ratioP1;P2;durP2;ratioP2
75760;SDS011;64373;46.136;8.830;2022-11-14T00:02:24;5.55;;;3.70;;
75760;SDS011;64373;46.136;8.830;2022-11-14T00:04:49;4.05;;;2.72;;
75760;SDS011;64373;46.136;8.830;2022-11-14T00:07:15;4.85;;;3.25;;
75760;SDS011;64373;46.136;8.830;2022-11-14T00:09:40;5.70;;;3.50;;
75760;SDS011;64373;46.136;8.830;2022-11-14T00:12:09;5.35;;;3.90;;
75760;SDS011;64373;46.136;8.830;2022-11-14T00:14:35;8.95;;;5.50;;
75760;SDS011;64373;46.136;8.830;2022-11-14T00:17:00;4.68;;;3.30;;
75760;SDS011;64373;46.136;8.830;2022-11-14T00:19:26;8.38;;;4.95;;
75760;SDS011;64373;46.136;8.830;2022-11-14T00:21:52;4.30;;;3.13;;
75760;SDS011;64373;46.136;8.830;2022-11-14T00:24:17;4.10;;;3.00;;
75760;SDS011;64373;46.136;8.830;2022-11-14T00:26:43;4.18;;;2.92;;
75760;SDS011;64373;46.136;8.830;2022-11-14T00:29:09;5.82;;;3.58;;
75760;SDS011;64373;46.136;8.830;2022-11-14T00:31:36;4.15;;;3.00;;
75760;SDS011;64373;46.136;8.830;2022-11-14T00:34:01;4.97;;;3.25;;
75760;SDS011;64373;46.136;8.830;2022-11-14T00:36:27;4.93;;;2.95;;
75760;SDS011;64373;46.136;8.830;2022-11-14T00:38:53;5.28;;;4.15;;
75760;SDS011;64373;46.136;8.830;2022-11-14T00:41:19;5.32;;;3.72;;
75760;SDS011;64373;46.136;8.830;2022-11-14T00:43:44;5.75;;;3.53;;
75760;SDS011;64373;46.136;8.830;2022-11-14T00:46:10;5.93;;;3.75;;
75760;SDS011;64373;46.136;8.830;2022-11-14T00:48:39;4.80;;;3.35;;
75760;SDS011;64373;46.136;8.830;2022-11-14T00:51:04;5.75;;;4.13;;
75760;SDS011;64373;46.136;8.830;2022-11-14T00:53:30;6.15;;;4.20;;
75760;SDS011;64373;46.136;8.830;2022-11-14T00:55:55;5.97;;;3.92;;
75760;SDS011;64373;46.136;8.830;2022-11-14T00:58:21;6.05;;;4.25;;
75760;SDS011;64373;46.136;8.830;2022-11-14T01:00:46;6.05;;;3.88;;
75760;SDS011;64373;46.136;8.830;2022-11-14T01:03:12;6.18;;;3.80;;
75760;SDS011;64373;46.136;8.830;2022-11-14T01:05:41;8.35;;;4.72;;
75760;SDS011;64373;46.136;8.830;2022-11-14T01:08:11;7.22;;;4.82;;
75760;SDS011;64373;46.136;8.830;2022-11-14T01:10:41;7.70;;;4.53;;
75760;SDS011;64373;46.136;8.830;2022-11-14T01:13:08;7.18;;;4.63;;
75760;SDS011;64373;46.136;8.830;2022-11-14T01:15:37;11.70;;;7.60;;
75760;SDS011;64373;46.136;8.830;2022-11-14T01:18:04;9.75;;;5.82;;
75760;SDS011;64373;46.136;8.830;2022-11-14T01:20:30;7.72;;;5.28;;
75760;SDS011;64373;46.136;8.830;2022-11-14T01:22:55;7.25;;;5.00;;
75760;SDS011;64373;46.136;8.830;2022-11-14T01:25:21;7.18;;;4.28;;
75760;SDS011;64373;46.136;8.830;2022-11-14T01:27:46;6.97;;;4.50;;
75760;SDS011;64373;46.136;8.830;2022-11-14T01:30:12;8.30;;;4.75;;
75760;SDS011;64373;46.136;8.830;2022-11-14T01:32:38;8.82;;;5.50;;
75760;SDS011;64373;46.136;8.830;2022-11-14T01:35:03;7.68;;;5.15;;
75760;SDS011;64373;46.136;8.830;2022-11-14T01:37:29;9.65;;;5.88;;
75760;SDS011;64373;46.136;8.830;2022-11-14T01:39:54;11.38;;;7.22;;
75760;SDS011;64373;46.136;8.830;2022-11-14T01:42:20;8.57;;;5.57;;
75760;SDS011;64373;46.136;8.830;2022-11-14T01:44:49;8.45;;;5.13;;
75760;SDS011;64373;46.136;8.830;2022-11-14T01:47:20;12.85;;;8.30;;
75760;SDS011;64373;46.136;8.830;2022-11-14T01:49:49;9.38;;;5.93;;
75760;SDS011;64373;46.136;8.830;2022-11-14T01:52:21;5.82;;;3.72;;
75760;SDS011;64373;46.136;8.830;2022-11-14T01:54:51;8.70;;;5.78;;
75760;SDS011;64373;46.136;8.830;2022-11-14T01:59:48;6.43;;;4.18;;
75760;SDS011;64373;46.136;8.830;2022-11-14T02:02:19;5.95;;;3.78;;
75760;SDS011;64373;46.136;8.830;2022-11-14T02:04:48;9.15;;;6.05;;
75760;SDS011;64373;46.136;8.830;2022-11-14T02:07:20;7.22;;;4.53;;
75760;SDS011;64373;46.136;8.830;2022-11-14T02:09:47;10.75;;;6.25;;
75760;SDS011;64373;46.136;8.830;2022-11-14T02:12:14;13.57;;;9.05;;
75760;SDS011;64373;46.136;8.830;2022-11-14T02:14:42;13.20;;;8.95;;
75760;SDS011;64373;46.136;8.830;2022-11-14T02:17:12;16.73;;;9.10;;
75760;SDS011;64373;46.136;8.830;2022-11-14T02:22:11;10.88;;;6.88;;
75760;SDS011;64373;46.136;8.830;2022-11-14T02:24:36;9.68;;;6.45;;
75760;SDS011;64373;46.136;8.830;2022-11-14T02:27:03;13.40;;;7.68;;
75760;SDS011;64373;46.136;8.830;2022-11-14T02:29:30;15.50;;;9.25;;
75760;SDS011;64373;46.136;8.830;2022-11-14T02:31:59;17.77;;;10.90;;
75760;SDS011;64373;46.136;8.830;2022-11-14T02:34:25;16.13;;;9.73;;
75760;SDS011;64373;46.136;8.830;2022-11-14T02:36:51;14.32;;;8.98;;
75760;SDS011;64373;46.136;8.830;2022-11-14T02:39:16;16.98;;;10.35;;
75760;SDS011;64373;46.136;8.830;2022-11-14T02:41:42;15.73;;;10.15;;
75760;SDS011;64373;46.136;8.830;2022-11-14T02:44:07;14.07;;;9.27;;
75760;SDS011;64373;46.136;8.830;2022-11-14T02:46:32;15.95;;;10.15;;
75760;SDS011;64373;46.136;8.830;2022-11-14T02:48:59;17.05;;;9.95;;
75760;SDS011;64373;46.136;8.830;2022-11-14T02:51:24;15.00;;;9.52;;
75760;SDS011;64373;46.136;8.830;2022-11-14T02:53:50;18.65;;;10.55;;
75760;SDS011;64373;46.136;8.830;2022-11-14T02:56:15;17.02;;;10.27;;
75760;SDS011;64373;46.136;8.830;2022-11-14T02:58:40;19.58;;;10.48;;
75760;SDS011;64373;46.136;8.830;2022-11-14T03:01:06;17.05;;;8.70;;
75760;SDS011;64373;46.136;8.830;2022-11-14T03:03:32;18.85;;;11.10;;
75760;SDS011;64373;46.136;8.830;2022-11-14T03:06:00;18.58;;;10.70;;
75760;SDS011;64373;46.136;8.830;2022-11-14T03:08:27;21.05;;;11.90;;
75760;SDS011;64373;46.136;8.830;2022-11-14T03:10:53;15.50;;;9.48;;
75760;SDS011;64373;46.136;8.830;2022-11-14T03:13:18;18.75;;;11.95;;
75760;SDS011;64373;46.136;8.830;2022-11-14T03:15:44;20.73;;;11.02;;
75760;SDS011;64373;46.136;8.830;2022-11-14T03:18:10;20.30;;;11.75;;
75760;SDS011;64373;46.136;8.830;2022-11-14T03:20:35;14.95;;;8.55;;
75760;SDS011;64373;46.136;8.830;2022-11-14T03:23:01;17.45;;;11.00;;
75760;SDS011;64373;46.136;8.830;2022-11-14T03:25:26;20.60;;;10.90;;
75760;SDS011;64373;46.136;8.830;2022-11-14T03:27:52;21.40;;;12.20;;
75760;SDS011;64373;46.136;8.830;2022-11-14T03:30:17;19.05;;;11.75;;
75760;SDS011;64373;46.136;8.830;2022-11-14T03:32:43;13.32;;;8.15;;
75760;SDS011;64373;46.136;8.830;2022-11-14T03:35:08;9.07;;;5.75;;
75760;SDS011;64373;46.136;8.830;2022-11-14T03:37:35;7.05;;;4.38;;
75760;SDS011;64373;46.136;8.830;2022-11-14T03:40:00;7.28;;;4.97;;
75760;SDS011;64373;46.136;8.830;2022-11-14T03:42:26;12.18;;;7.78;;
75760;SDS011;64373;46.136;8.830;2022-11-14T03:44:52;8.80;;;5.40;;
75760;SDS011;64373;46.136;8.830;2022-11-14T03:47:17;6.85;;;4.57;;
75760;SDS011;64373;46.136;8.830;2022-11-14T03:49:43;7.47;;;5.00;;
75760;SDS011;64373;46.136;8.830;2022-11-14T03:52:10;9.35;;;6.53;;
75760;SDS011;64373;46.136;8.830;2022-11-14T03:54:36;16.30;;;10.20;;
75760;SDS011;64373;46.136;8.830;2022-11-14T03:57:02;10.13;;;6.22;;
75760;SDS011;64373;46.136;8.830;2022-11-14T03:59:28;14.02;;;8.43;;
75760;SDS011;64373;46.136;8.830;2022-11-14T04:01:53;9.88;;;6.47;;
75760;SDS011;64373;46.136;8.830;2022-11-14T04:04:19;13.73;;;9.10;;
75760;SDS011;64373;46.136;8.830;2022-11-14T04:06:44;10.18;;;6.97;;
75760;SDS011;64373;46.136;8.830;2022-11-14T04:09:10;17.23;;;10.20;;
75760;SDS011;64373;46.136;8.830;2022-11-14T04:11:35;9.93;;;6.90;;
75760;SDS011;64373;46.136;8.830;2022-11-14T04:14:01;7.15;;;4.63;;
75760;SDS011;64373;46.136;8.830;2022-11-14T04:16:26;13.02;;;8.05;;
75760;SDS011;64373;46.136;8.830;2022-11-14T04:18:52;13.48;;;8.35;;
75760;SDS011;64373;46.136;8.830;2022-11-14T04:21:17;14.55;;;8.18;;
75760;SDS011;64373;46.136;8.830;2022-11-14T04:23:43;10.07;;;6.20;;
75760;SDS011;64373;46.136;8.830;2022-11-14T04:26:08;5.93;;;3.95;;
75760;SDS011;64373;46.136;8.830;2022-11-14T04:28:33;4.60;;;3.13;;
75760;SDS011;64373;46.136;8.830;2022-11-14T04:30:59;3.90;;;2.58;;
75760;SDS011;64373;46.136;8.830;2022-11-14T04:33:25;4.43;;;2.88;;
75760;SDS011;64373;46.136;8.830;2022-11-14T04:35:50;13.73;;;7.38;;
75760;SDS011;64373;46.136;8.830;2022-11-14T04:38:16;8.35;;;5.18;;
75760;SDS011;64373;46.136;8.830;2022-11-14T04:40:48;7.20;;;4.40;;
75760;SDS011;64373;46.136;8.830;2022-11-14T04:43:14;6.47;;;3.75;;
75760;SDS011;64373;46.136;8.830;2022-11-14T04:45:40;7.80;;;4.70;;
75760;SDS011;64373;46.136;8.830;2022-11-14T04:48:05;8.45;;;4.35;;
75760;SDS011;64373;46.136;8.830;2022-11-14T04:50:31;5.95;;;3.33;;
75760;SDS011;64373;46.136;8.830;2022-11-14T04:52:56;6.88;;;4.22;;
75760;SDS011;64373;46.136;8.830;2022-11-14T04:55:22;5.68;;;3.50;;
75760;SDS011;64373;46.136;8.830;2022-11-14T04:57:52;3.90;;;2.53;;
75760;SDS011;64373;46.136;8.830;2022-11-14T05:00:19;4.72;;;3.47;;
75760;SDS011;64373;46.136;8.830;2022-11-14T05:02:44;5.13;;;3.67;;
75760;SDS011;64373;46.136;8.830;2022-11-14T05:05:10;5.60;;;3.40;;
75760;SDS011;64373;46.136;8.830;2022-11-14T05:07:35;9.00;;;5.25;;
75760;SDS011;64373;46.136;8.830;2022-11-14T05:10:00;6.63;;;4.40;;
75760;SDS011;64373;46.136;8.830;2022-11-14T05:12:26;5.88;;;3.55;;
75760;SDS011;64373;46.136;8.830;2022-11-14T05:14:51;7.47;;;4.15;;
75760;SDS011;64373;46.136;8.830;2022-11-14T05:17:17;6.60;;;4.22;;
75760;SDS011;64373;46.136;8.830;2022-11-14T05:19:42;10.82;;;5.68;;
75760;SDS011;64373;46.136;8.830;2022-11-14T05:22:08;5.75;;;3.92;;
75760;SDS011;64373;46.136;8.830;2022-11-14T05:24:33;7.35;;;4.18;;
75760;SDS011;64373;46.136;8.830;2022-11-14T05:26:59;9.73;;;6.32;;
75760;SDS011;64373;46.136;8.830;2022-11-14T05:29:24;5.00;;;3.42;;
75760;SDS011;64373;46.136;8.830;2022-11-14T05:31:49;5.28;;;3.35;;
75760;SDS011;64373;46.136;8.830;2022-11-14T05:34:15;10.50;;;5.90;;
75760;SDS011;64373;46.136;8.830;2022-11-14T05:36:40;5.80;;;3.78;;
75760;SDS011;64373;46.136;8.830;2022-11-14T05:39:06;5.65;;;3.85;;
75760;SDS011;64373;46.136;8.830;2022-11-14T05:41:31;5.55;;;3.20;;
75760;SDS011;64373;46.136;8.830;2022-11-14T05:43:57;7.43;;;5.28;;
75760;SDS011;64373;46.136;8.830;2022-11-14T05:46:22;5.00;;;3.30;;
75760;SDS011;64373;46.136;8.830;2022-11-14T05:48:48;5.97;;;4.10;;
75760;SDS011;64373;46.136;8.830;2022-11-14T05:51:13;8.43;;;5.82;;
75760;SDS011;64373;46.136;8.830;2022-11-14T05:53:39;8.13;;;4.80;;
75760;SDS011;64373;46.136;8.830;2022-11-14T05:56:06;5.65;;;3.40;;
75760;SDS011;64373;46.136;8.830;2022-11-14T05:58:34;5.43;;;3.90;;
75760;SDS011;64373;46.136;8.830;2022-11-14T06:01:01;4.90;;;3.15;;
75760;SDS011;64373;46.136;8.830;2022-11-14T06:03:36;7.28;;;4.40;;
75760;SDS011;64373;46.136;8.830;2022-11-14T06:06:04;8.65;;;5.60;;
75760;SDS011;64373;46.136;8.830;2022-11-14T06:08:31;9.13;;;5.07;;
75760;SDS011;64373;46.136;8.830;2022-11-14T06:11:00;10.75;;;6.38;;
75760;SDS011;64373;46.136;8.830;2022-11-14T06:13:27;7.43;;;5.13;;
75760;SDS011;64373;46.136;8.830;2022-11-14T06:15:57;7.13;;;4.65;;
75760;SDS011;64373;46.136;8.830;2022-11-14T06:18:32;6.20;;;4.05;;
75760;SDS011;64373;46.136;8.830;2022-11-14T06:20:59;6.75;;;4.20;;
75760;SDS011;64373;46.136;8.830;2022-11-14T06:23:26;6.30;;;4.25;;
75760;SDS011;64373;46.136;8.830;2022-11-14T06:25:56;6.03;;;3.97;;
75760;SDS011;64373;46.136;8.830;2022-11-14T06:28:29;7.32;;;4.65;;
75760;SDS011;64373;46.136;8.830;2022-11-14T06:31:01;4.47;;;3.13;;
75760;SDS011;64373;46.136;8.830;2022-11-14T06:33:28;4.68;;;3.20;;
75760;SDS011;64373;46.136;8.830;2022-11-14T06:36:01;8.43;;;5.03;;
75760;SDS011;64373;46.136;8.830;2022-11-14T06:38:31;7.53;;;4.40;;
75760;SDS011;64373;46.136;8.830;2022-11-14T06:41:07;6.72;;;4.28;;
75760;SDS011;64373;46.136;8.830;2022-11-14T06:43:34;5.40;;;3.70;;
75760;SDS011;64373;46.136;8.830;2022-11-14T06:46:01;6.80;;;4.65;;
75760;SDS011;64373;46.136;8.830;2022-11-14T06:48:27;8.52;;;5.32;;
75760;SDS011;64373;46.136;8.830;2022-11-14T06:50:53;9.02;;;5.82;;
75760;SDS011;64373;46.136;8.830;2022-11-14T06:53:20;8.13;;;4.95;;
75760;SDS011;64373;46.136;8.830;2022-11-14T06:55:55;6.75;;;4.30;;
75760;SDS011;64373;46.136;8.830;2022-11-14T06:58:26;6.38;;;4.32;;
75760;SDS011;64373;46.136;8.830;2022-11-14T07:00:52;8.57;;;5.30;;
75760;SDS011;64373;46.136;8.830;2022-11-14T07:03:18;4.07;;;2.25;;
75760;SDS011;64373;46.136;8.830;2022-11-14T07:05:43;3.60;;;2.40;;
75760;SDS011;64373;46.136;8.830;2022-11-14T07:08:09;3.10;;;2.10;;
75760;SDS011;64373;46.136;8.830;2022-11-14T07:10:34;3.92;;;2.30;;
75760;SDS011;64373;46.136;8.830;2022-11-14T07:13:00;2.33;;;1.70;;
75760;SDS011;64373;46.136;8.830;2022-11-14T07:15:25;3.22;;;2.13;;
75760;SDS011;64373;46.136;8.830;2022-11-14T07:17:51;2.85;;;2.20;;
75760;SDS011;64373;46.136;8.830;2022-11-14T07:20:16;4.53;;;3.28;;
75760;SDS011;64373;46.136;8.830;2022-11-14T07:22:45;5.05;;;3.17;;
75760;SDS011;64373;46.136;8.830;2022-11-14T07:25:11;5.60;;;3.80;;
75760;SDS011;64373;46.136;8.830;2022-11-14T07:27:37;6.00;;;3.92;;
75760;SDS011;64373;46.136;8.830;2022-11-14T07:30:03;4.75;;;3.28;;
75760;SDS011;64373;46.136;8.830;2022-11-14T07:32:29;5.32;;;2.92;;
75760;SDS011;64373;46.136;8.830;2022-11-14T07:34:55;4.75;;;2.78;;
75760;SDS011;64373;46.136;8.830;2022-11-14T07:37:20;8.65;;;5.22;;
75760;SDS011;64373;46.136;8.830;2022-11-14T07:39:45;5.38;;;3.35;;
75760;SDS011;64373;46.136;8.830;2022-11-14T07:42:11;5.82;;;3.22;;
75760;SDS011;64373;46.136;8.830;2022-11-14T07:44:36;4.75;;;3.30;;
75760;SDS011;64373;46.136;8.830;2022-11-14T07:47:02;5.28;;;3.35;;
75760;SDS011;64373;46.136;8.830;2022-11-14T07:49:28;4.88;;;3.45;;
75760;SDS011;64373;46.136;8.830;2022-11-14T07:51:53;4.70;;;3.00;;
75760;SDS011;64373;46.136;8.830;2022-11-14T07:54:19;4.57;;;3.00;;
75760;SDS011;64373;46.136;8.830;2022-11-14T07:56:44;3.97;;;2.65;;
75760;SDS011;64373;46.136;8.830;2022-11-14T07:59:10;4.50;;;3.10;;
75760;SDS011;64373;46.136;8.830;2022-11-14T08:01:35;4.18;;;2.95;;
75760;SDS011;64373;46.136;8.830;2022-11-14T08:04:01;4.80;;;3.20;;
75760;SDS011;64373;46.136;8.830;2022-11-14T08:06:26;4.60;;;2.90;;
75760;SDS011;64373;46.136;8.830;2022-11-14T08:08:52;4.07;;;2.63;;
75760;SDS011;64373;46.136;8.830;2022-11-14T08:11:18;4.15;;;2.58;;
75760;SDS011;64373;46.136;8.830;2022-11-14T08:14:03;2.60;;;1.75;;
75760;SDS011;64373;46.136;8.830;2022-11-14T08:16:29;2.90;;;2.08;;
75760;SDS011;64373;46.136;8.830;2022-11-14T08:18:54;3.45;;;2.58;;
75760;SDS011;64373;46.136;8.830;2022-11-14T08:21:20;3.72;;;2.70;;
75760;SDS011;64373;46.136;8.830;2022-11-14T08:23:45;3.95;;;2.47;;
75760;SDS011;64373;46.136;8.830;2022-11-14T08:26:11;3.30;;;2.20;;
75760;SDS011;64373;46.136;8.830;2022-11-14T08:28:36;2.90;;;2.10;;
75760;SDS011;64373;46.136;8.830;2022-11-14T08:31:02;2.33;;;2.03;;
75760;SDS011;64373;46.136;8.830;2022-11-14T08:33:28;3.60;;;2.40;;
75760;SDS011;64373;46.136;8.830;2022-11-14T08:35:54;3.63;;;2.72;;
75760;SDS011;64373;46.136;8.830;2022-11-14T08:38:20;4.30;;;2.47;;
75760;SDS011;64373;46.136;8.830;2022-11-14T08:40:45;2.38;;;1.70;;
75760;SDS011;64373;46.136;8.830;2022-11-14T08:43:11;3.88;;;2.60;;
75760;SDS011;64373;46.136;8.830;2022-11-14T08:45:36;1.92;;;1.50;;
75760;SDS011;64373;46.136;8.830;2022-11-14T08:48:02;4.32;;;2.97;;
75760;SDS011;64373;46.136;8.830;2022-11-14T08:50:27;4.43;;;3.47;;
75760;SDS011;64373;46.136;8.830;2022-11-14T08:52:53;7.00;;;4.53;;
75760;SDS011;64373;46.136;8.830;2022-11-14T08:55:19;8.63;;;4.75;;
75760;SDS011;64373;46.136;8.830;2022-11-14T08:57:44;4.30;;;3.03;;
75760;SDS011;64373;46.136;8.830;2022-11-14T09:00:10;4.82;;;3.58;;
75760;SDS011;64373;46.136;8.830;2022-11-14T09:02:36;4.45;;;3.22;;
75760;SDS011;64373;46.136;8.830;2022-11-14T09:05:02;2.80;;;2.30;;
75760;SDS011;64373;46.136;8.830;2022-11-14T09:07:27;2.67;;;2.10;;
75760;SDS011;64373;46.136;8.830;2022-11-14T09:09:53;3.65;;;2.63;;
75760;SDS011;64373;46.136;8.830;2022-11-14T09:12:18;4.43;;;3.05;;
75760;SDS011;64373;46.136;8.830;2022-11-14T09:14:44;3.90;;;2.20;;
75760;SDS011;64373;46.136;8.830;2022-11-14T09:17:09;5.43;;;3.63;;
75760;SDS011;64373;46.136;8.830;2022-11-14T09:19:35;4.03;;;2.83;;
75760;SDS011;64373;46.136;8.830;2022-11-14T09:22:00;6.68;;;4.57;;
75760;SDS011;64373;46.136;8.830;2022-11-14T09:24:26;6.00;;;4.20;;
75760;SDS011;64373;46.136;8.830;2022-11-14T09:26:51;3.80;;;2.72;;
75760;SDS011;64373;46.136;8.830;2022-11-14T09:29:17;4.90;;;2.97;;
75760;SDS011;64373;46.136;8.830;2022-11-14T09:31:43;4.20;;;2.45;;
75760;SDS011;64373;46.136;8.830;2022-11-14T09:34:09;5.65;;;3.65;;
75760;SDS011;64373;46.136;8.830;2022-11-14T09:36:34;3.90;;;2.70;;
75760;SDS011;64373;46.136;8.830;2022-11-14T09:39:00;4.03;;;3.05;;
75760;SDS011;64373;46.136;8.830;2022-11-14T09:41:32;4.65;;;2.88;;
75760;SDS011;64373;46.136;8.830;2022-11-14T09:47:07;3.78;;;2.42;;
75760;SDS011;64373;46.136;8.830;2022-11-14T09:57:44;6.68;;;4.13;;
75760;SDS011;64373;46.136;8.830;2022-11-14T10:00:14;4.40;;;2.92;;
75760;SDS011;64373;46.136;8.830;2022-11-14T10:02:53;2.88;;;2.28;;
75760;SDS011;64373;46.136;8.830;2022-11-14T10:05:39;4.68;;;2.53;;
75760;SDS011;64373;46.136;8.830;2022-11-14T10:08:44;3.97;;;2.35;;
75760;SDS011;64373;46.136;8.830;2022-11-14T10:11:21;2.80;;;2.10;;
75760;SDS011;64373;46.136;8.830;2022-11-14T10:19:17;2.78;;;1.63;;
75760;SDS011;64373;46.136;8.830;2022-11-14T10:30:18;2.72;;;1.83;;
75760;SDS011;64373;46.136;8.830;2022-11-14T10:32:55;2.55;;;1.92;;
75760;SDS011;64373;46.136;8.830;2022-11-14T10:38:03;3.38;;;1.92;;
75760;SDS011;64373;46.136;8.830;2022-11-14T10:40:46;2.15;;;1.55;;
75760;SDS011;64373;46.136;8.830;2022-11-14T10:48:29;2.20;;;1.50;;
75760;SDS011;64373;46.136;8.830;2022-11-14T10:50:59;2.40;;;1.80;;
75760;SDS011;64373;46.136;8.830;2022-11-14T10:53:41;1.98;;;1.60;;
75760;SDS011;64373;46.136;8.830;2022-11-14T10:56:11;2.10;;;1.70;;
75760;SDS011;64373;46.136;8.830;2022-11-14T10:58:39;1.85;;;1.63;;
75760;SDS011;64373;46.136;8.830;2022-11-14T11:09:35;2.65;;;1.70;;
75760;SDS011;64373;46.136;8.830;2022-11-14T11:17:53;2.85;;;2.05;;
75760;SDS011;64373;46.136;8.830;2022-11-14T11:25:31;3.78;;;2.67;;
75760;SDS011;64373;46.136;8.830;2022-11-14T11:28:31;3.17;;;2.00;;
75760;SDS011;64373;46.136;8.830;2022-11-14T11:31:03;2.40;;;2.00;;
75760;SDS011;64373;46.136;8.830;2022-11-14T11:33:31;3.05;;;2.00;;
75760;SDS011;64373;46.136;8.830;2022-11-14T11:36:30;3.08;;;2.05;;
75760;SDS011;64373;46.136;8.830;2022-11-14T11:38:49;2.92;;;2.10;;
75760;SDS011;64373;46.136;8.830;2022-11-14T11:43:58;2.33;;;1.65;;
75760;SDS011;64373;46.136;8.830;2022-11-14T11:46:32;2.78;;;1.70;;
75760;SDS011;64373;46.136;8.830;2022-11-14T11:49:09;3.15;;;2.28;;
75760;SDS011;64373;46.136;8.830;2022-11-14T11:51:39;2.97;;;2.38;;
75760;SDS011;64373;46.136;8.830;2022-11-14T11:54:10;4.28;;;3.17;;
75760;SDS011;64373;46.136;8.830;2022-11-14T11:56:39;4.05;;;2.88;;
75760;SDS011;64373;46.136;8.830;2022-11-14T12:01:34;3.72;;;2.47;;
75760;SDS011;64373;46.136;8.830;2022-11-14T12:04:00;3.08;;;1.90;;
75760;SDS011;64373;46.136;8.830;2022-11-14T12:06:26;2.30;;;1.65;;
75760;SDS011;64373;46.136;8.830;2022-11-14T12:11:29;1.98;;;1.33;;
75760;SDS011;64373;46.136;8.830;2022-11-14T12:30:44;2.55;;;1.85;;
75760;SDS011;64373;46.136;8.830;2022-11-14T12:33:31;2.67;;;1.83;;
75760;SDS011;64373;46.136;8.830;2022-11-14T12:36:04;2.97;;;2.20;;
75760;SDS011;64373;46.136;8.830;2022-11-14T12:38:53;1.73;;;1.38;;
75760;SDS011;64373;46.136;8.830;2022-11-14T12:41:25;1.85;;;1.38;;
75760;SDS011;64373;46.136;8.830;2022-11-14T12:43:52;2.13;;;1.55;;
75760;SDS011;64373;46.136;8.830;2022-11-14T12:46:18;2.25;;;1.80;;
75760;SDS011;64373;46.136;8.830;2022-11-14T12:48:44;3.28;;;2.70;;
75760;SDS011;64373;46.136;8.830;2022-11-14T12:51:55;6.40;;;4.30;;
75760;SDS011;64373;46.136;8.830;2022-11-14T12:54:00;4.13;;;3.30;;
75760;SDS011;64373;46.136;8.830;2022-11-14T13:07:41;2.33;;;1.60;;
75760;SDS011;64373;46.136;8.830;2022-11-14T13:12:27;1.30;;;1.02;;
75760;SDS011;64373;46.136;8.830;2022-11-14T13:15:23;0.80;;;0.80;;
75760;SDS011;64373;46.136;8.830;2022-11-14T13:18:12;0.60;;;0.60;;
75760;SDS011;64373;46.136;8.830;2022-11-14T13:24:07;0.52;;;0.40;;
75760;SDS011;64373;46.136;8.830;2022-11-14T13:28:59;1.00;;;0.90;;
75760;SDS011;64373;46.136;8.830;2022-11-14T13:31:42;1.92;;;1.65;;
75760;SDS011;64373;46.136;8.830;2022-11-14T13:37:09;1.30;;;1.20;;
75760;SDS011;64373;46.136;8.830;2022-11-14T13:42:54;1.08;;;0.98;;
75760;SDS011;64373;46.136;8.830;2022-11-14T13:45:43;0.73;;;0.73;;
75760;SDS011;64373;46.136;8.830;2022-11-14T13:50:35;0.98;;;0.68;;
75760;SDS011;64373;46.136;8.830;2022-11-14T13:53:02;0.50;;;0.50;;
75760;SDS011;64373;46.136;8.830;2022-11-14T14:01:25;1.15;;;1.05;;
75760;SDS011;64373;46.136;8.830;2022-11-14T14:05:17;0.75;;;0.70;;
75760;SDS011;64373;46.136;8.830;2022-11-14T14:12:26;0.70;;;0.60;;
75760;SDS011;64373;46.136;8.830;2022-11-14T14:31:12;0.60;;;0.50;;
75760;SDS011;64373;46.136;8.830;2022-11-14T14:33:40;1.00;;;0.90;;
75760;SDS011;64373;46.136;8.830;2022-11-14T14:36:17;0.70;;;0.63;;
75760;SDS011;64373;46.136;8.830;2022-11-14T14:38:43;0.80;;;0.73;;
75760;SDS011;64373;46.136;8.830;2022-11-14T14:41:10;0.90;;;0.60;;
75760;SDS011;64373;46.136;8.830;2022-11-14T14:43:36;0.57;;;0.57;;
75760;SDS011;64373;46.136;8.830;2022-11-14T14:46:02;0.60;;;0.57;;
75760;SDS011;64373;46.136;8.830;2022-11-14T14:48:28;1.05;;;0.82;;
75760;SDS011;64373;46.136;8.830;2022-11-14T14:50:56;0.65;;;0.60;;
75760;SDS011;64373;46.136;8.830;2022-11-14T14:53:26;1.08;;;0.70;;
75760;SDS011;64373;46.136;8.830;2022-11-14T14:56:01;1.10;;;0.70;;
75760;SDS011;64373;46.136;8.830;2022-11-14T14:58:32;0.85;;;0.70;;
75760;SDS011;64373;46.136;8.830;2022-11-14T15:01:05;0.93;;;0.70;;
75760;SDS011;64373;46.136;8.830;2022-11-14T15:06:16;0.93;;;0.73;;
75760;SDS011;64373;46.136;8.830;2022-11-14T15:08:53;0.77;;;0.50;;
75760;SDS011;64373;46.136;8.830;2022-11-14T15:11:20;0.80;;;0.68;;
75760;SDS011;64373;46.136;8.830;2022-11-14T15:13:46;0.55;;;0.50;;
75760;SDS011;64373;46.136;8.830;2022-11-14T15:16:16;0.98;;;0.60;;
75760;SDS011;64373;46.136;8.830;2022-11-14T15:18:42;0.73;;;0.73;;
75760;SDS011;64373;46.136;8.830;2022-11-14T15:21:11;0.40;;;0.40;;
75760;SDS011;64373;46.136;8.830;2022-11-14T15:23:39;0.28;;;0.28;;
75760;SDS011;64373;46.136;8.830;2022-11-14T15:26:12;0.57;;;0.45;;
75760;SDS011;64373;46.136;8.830;2022-11-14T15:28:42;0.82;;;0.60;;
75760;SDS011;64373;46.136;8.830;2022-11-14T15:31:14;0.85;;;0.65;;
75760;SDS011;64373;46.136;8.830;2022-11-14T15:33:42;0.60;;;0.60;;
75760;SDS011;64373;46.136;8.830;2022-11-14T15:36:09;0.88;;;0.52;;
75760;SDS011;64373;46.136;8.830;2022-11-14T15:38:36;0.70;;;0.70;;
75760;SDS011;64373;46.136;8.830;2022-11-14T15:41:10;0.95;;;0.77;;
75760;SDS011;64373;46.136;8.830;2022-11-14T15:43:49;0.95;;;0.80;;
75760;SDS011;64373;46.136;8.830;2022-11-14T15:48:57;0.70;;;0.60;;
75760;SDS011;64373;46.136;8.830;2022-11-14T15:51:41;0.70;;;0.50;;
75760;SDS011;64373;46.136;8.830;2022-11-14T15:54:34;1.00;;;0.80;;
75760;SDS011;64373;46.136;8.830;2022-11-14T15:57:11;0.70;;;0.70;;
75760;SDS011;64373;46.136;8.830;2022-11-14T15:59:37;0.70;;;0.60;;
75760;SDS011;64373;46.136;8.830;2022-11-14T16:02:09;1.02;;;0.40;;
75760;SDS011;64373;46.136;8.830;2022-11-14T16:04:37;0.98;;;0.80;;
75760;SDS011;64373;46.136;8.830;2022-11-14T16:07:03;1.00;;;0.90;;
75760;SDS011;64373;46.136;8.830;2022-11-14T16:09:29;0.90;;;0.77;;
75760;SDS011;64373;46.136;8.830;2022-11-14T16:11:55;0.80;;;0.57;;
75760;SDS011;64373;46.136;8.830;2022-11-14T16:14:20;1.02;;;0.93;;
75760;SDS011;64373;46.136;8.830;2022-11-14T16:16:46;1.00;;;0.70;;
75760;SDS011;64373;46.136;8.830;2022-11-14T16:19:12;0.80;;;0.80;;
75760;SDS011;64373;46.136;8.830;2022-11-14T16:21:39;1.02;;;0.60;;
75760;SDS011;64373;46.136;8.830;2022-11-14T16:24:05;2.38;;;1.05;;
75760;SDS011;64373;46.136;8.830;2022-11-14T16:26:30;1.45;;;0.93;;
75760;SDS011;64373;46.136;8.830;2022-11-14T16:28:56;1.08;;;0.80;;
75760;SDS011;64373;46.136;8.830;2022-11-14T16:31:22;1.30;;;0.90;;
75760;SDS011;64373;46.136;8.830;2022-11-14T16:33:47;0.50;;;0.50;;
75760;SDS011;64373;46.136;8.830;2022-11-14T16:36:13;0.60;;;0.50;;
75760;SDS011;64373;46.136;8.830;2022-11-14T16:38:38;0.75;;;0.50;;
75760;SDS011;64373;46.136;8.830;2022-11-14T16:41:07;1.13;;;0.80;;
75760;SDS011;64373;46.136;8.830;2022-11-14T16:43:33;2.55;;;0.90;;
75760;SDS011;64373;46.136;8.830;2022-11-14T16:46:05;0.70;;;0.57;;
75760;SDS011;64373;46.136;8.830;2022-11-14T16:48:31;0.60;;;0.50;;
75760;SDS011;64373;46.136;8.830;2022-11-14T16:51:00;0.82;;;0.60;;
75760;SDS011;64373;46.136;8.830;2022-11-14T16:53:26;0.98;;;0.70;;
75760;SDS011;64373;46.136;8.830;2022-11-14T16:55:52;0.70;;;0.60;;
75760;SDS011;64373;46.136;8.830;2022-11-14T16:58:18;0.90;;;0.60;;
75760;SDS011;64373;46.136;8.830;2022-11-14T17:00:44;2.15;;;0.95;;
75760;SDS011;64373;46.136;8.830;2022-11-14T17:03:09;2.03;;;0.95;;
75760;SDS011;64373;46.136;8.830;2022-11-14T17:05:48;1.77;;;1.10;;
75760;SDS011;64373;46.136;8.830;2022-11-14T17:08:15;1.40;;;0.90;;
75760;SDS011;64373;46.136;8.830;2022-11-14T17:10:41;1.80;;;0.65;;
75760;SDS011;64373;46.136;8.830;2022-11-14T17:13:08;1.38;;;0.90;;
75760;SDS011;64373;46.136;8.830;2022-11-14T17:15:33;1.30;;;0.70;;